createdAt,value
2023-05-24T00:01:26.006Z,95136.88
2023-05-24T00:03:59.167Z,95133.15
2023-05-24T00:06:28.187Z,95136.89
2023-05-24T00:08:56.515Z,95134.52
2023-05-24T00:11:24.903Z,95129.52
2023-05-24T00:13:53.073Z,95129.77
2023-05-24T00:16:21.534Z,95131.79
2023-05-24T00:18:49.764Z,95128.95
2023-05-24T00:21:17.848Z,95132.85
2023-05-24T00:23:46.007Z,95131.75
2023-05-24T00:26:14.078Z,95137.27
2023-05-24T00:28:42.242Z,95137.13
2023-05-24T00:31:10.372Z,95131.28
2023-05-24T00:33:38.492Z,95134.02
2023-05-24T00:36:06.762Z,95129.48
2023-05-24T00:38:34.984Z,95122.73
2023-05-24T00:41:03.171Z,95119.69
2023-05-24T00:43:31.234Z,95115.54
2023-05-24T00:46:23.173Z,95109.85
2023-05-24T00:48:51.759Z,95112.27
2023-05-24T00:51:20.025Z,95114.02
2023-05-24T00:53:49.671Z,95110.06
2023-05-24T00:56:18.027Z,95105.95
2023-05-24T00:58:46.662Z,95102.42
2023-05-24T01:01:14.941Z,95102.80
2023-05-24T01:03:43.839Z,95106.01
2023-05-24T01:06:16.147Z,95100.52
2023-05-24T01:08:50.044Z,95103.98
2023-05-24T01:11:18.895Z,95109.06
2023-05-24T01:14:07.500Z,95105.64
2023-05-24T01:16:51.903Z,95110.12
2023-05-24T01:19:39.236Z,95117.75
2023-05-24T01:22:13.268Z,95115.17
2023-05-24T01:25:03.892Z,95115.08
2023-05-24T01:27:36.464Z,95119.60
2023-05-24T01:30:05.308Z,95116.91
2023-05-24T01:32:33.514Z,95123.27
2023-05-24T01:35:01.746Z,95125.59
2023-05-24T01:37:29.863Z,95125.37
2023-05-24T01:39:58.715Z,95130.36
2023-05-24T01:42:31.494Z,95132.79
2023-05-24T01:45:25.981Z,95134.67
2023-05-24T01:48:18.894Z,95131.61
2023-05-24T01:51:00.831Z,95125.99
2023-05-24T01:53:39.714Z,95127.98
2023-05-24T01:56:09.046Z,95130.41
2023-05-24T01:58:41.198Z,95131.36
2023-05-24T02:01:10.694Z,95133.19
2023-05-24T02:03:39.298Z,95134.41
2023-05-24T02:06:08.409Z,95135.83
2023-05-24T02:08:36.558Z,95134.27
2023-05-24T02:11:04.737Z,95133.42
2023-05-24T02:13:32.817Z,95135.10
2023-05-24T02:16:00.998Z,95137.86
2023-05-24T02:18:35.005Z,95139.95
2023-05-24T02:21:03.243Z,95131.45
2023-05-24T02:23:31.741Z,95134.34
2023-05-24T02:26:01.582Z,95131.77
2023-05-24T02:28:32.440Z,95133.50
2023-05-24T02:31:01.293Z,95126.52
2023-05-24T02:33:30.090Z,95124.59
2023-05-24T02:35:58.252Z,95123.12
2023-05-24T02:38:26.735Z,95115.86
2023-05-24T02:40:54.848Z,95117.33
2023-05-24T02:43:22.960Z,95118.27
2023-05-24T02:45:51.256Z,95114.70
2023-05-24T02:48:19.308Z,95118.80
2023-05-24T02:50:47.579Z,95116.29
2023-05-24T02:53:16.127Z,95111.81
2023-05-24T02:55:46.831Z,95111.74
2023-05-24T02:58:17.791Z,95108.60
2023-05-24T03:00:47.635Z,95108.65
2023-05-24T03:03:16.539Z,95106.77
2023-05-24T03:05:46.291Z,95110.09
2023-05-24T03:08:14.818Z,95107.42
2023-05-24T03:10:43.879Z,95103.33
2023-05-24T03:13:14.313Z,95104.14
2023-05-24T03:15:43.335Z,95100.61
2023-05-24T03:18:11.481Z,95097.67
2023-05-24T03:20:40.166Z,95097.35
2023-05-24T03:23:09.827Z,95090.20
2023-05-24T03:25:38.103Z,95087.02
2023-05-24T03:28:07.317Z,95084.45
2023-05-24T03:30:35.915Z,95080.66
2023-05-24T03:33:03.970Z,95076.61
2023-05-24T03:35:32.509Z,95076.34
2023-05-24T03:38:00.721Z,95065.35
2023-05-24T03:40:32.486Z,95064.95
2023-05-24T03:43:07.559Z,95066.84
2023-05-24T03:45:44.045Z,95066.19
2023-05-24T03:48:13.810Z,95061.48
2023-05-24T03:50:42.434Z,95058.85
2023-05-24T03:53:10.921Z,95059.54
2023-05-24T03:55:39.672Z,95064.02
2023-05-24T03:58:08.092Z,95066.83
2023-05-24T04:00:36.681Z,95068.00
2023-05-24T04:03:06.847Z,95067.30
2023-05-24T04:05:35.692Z,95063.02
2023-05-24T04:08:04.399Z,95058.39
2023-05-24T04:10:32.385Z,95054.65
2023-05-24T04:13:00.883Z,95058.89
2023-05-24T04:15:29.014Z,95058.69
2023-05-24T04:17:57.481Z,95058.02
2023-05-24T04:20:27.268Z,95060.95
2023-05-24T04:22:56.446Z,95064.52
2023-05-24T04:25:24.783Z,95062.51
2023-05-24T04:27:53.637Z,95063.61
2023-05-24T04:30:22.362Z,95064.64
2023-05-24T04:32:51.666Z,95066.39
2023-05-24T04:35:20.509Z,95065.92
2023-05-24T04:37:50.412Z,95068.56
2023-05-24T04:40:21.001Z,95066.55
2023-05-24T04:42:49.809Z,95072.67
2023-05-24T04:45:18.017Z,95074.45
2023-05-24T04:47:46.239Z,95077.46
2023-05-24T04:50:14.561Z,95076.16
2023-05-24T04:52:42.633Z,95075.30
2023-05-24T04:55:10.825Z,95076.92
2023-05-24T04:57:38.992Z,95074.81
2023-05-24T05:00:08.272Z,95073.05
2023-05-24T05:02:37.026Z,95074.52
2023-05-24T05:05:05.837Z,95074.34
2023-05-24T05:07:34.040Z,95077.01
2023-05-24T05:10:02.986Z,95073.23
2023-05-24T05:12:31.502Z,95074.58
2023-05-24T05:14:59.673Z,95076.27
2023-05-24T05:17:27.963Z,95072.32
2023-05-24T05:19:56.214Z,95072.16
2023-05-24T05:22:24.630Z,95078.39
2023-05-24T05:24:52.669Z,95077.55
2023-05-24T05:27:21.082Z,95081.50
2023-05-24T05:29:49.335Z,95079.42
2023-05-24T05:32:17.634Z,95081.64
2023-05-24T05:34:45.737Z,95082.96
2023-05-24T05:37:13.865Z,95085.27
2023-05-24T05:39:41.992Z,95089.55
2023-05-24T05:42:10.082Z,95088.71
2023-05-24T05:44:38.167Z,95090.91
2023-05-24T05:47:07.553Z,95089.16
2023-05-24T05:49:39.002Z,95094.80
2023-05-24T05:52:07.429Z,95101.35
2023-05-24T05:54:35.939Z,95098.92
2023-05-24T05:57:04.119Z,95102.30
2023-05-24T05:59:36.055Z,95104.46
2023-05-24T06:02:05.954Z,95103.46
2023-05-24T06:04:34.800Z,95105.59
2023-05-24T06:07:03.081Z,95107.42
2023-05-24T06:09:31.078Z,95106.42
2023-05-24T06:11:59.154Z,95111.05
2023-05-24T06:14:27.227Z,95112.15
2023-05-24T06:16:56.307Z,95114.30
2023-05-24T06:19:27.276Z,95115.14
2023-05-24T06:21:55.313Z,95119.89
2023-05-24T06:24:23.622Z,95120.61
2023-05-24T06:26:53.278Z,95124.76
2023-05-24T06:29:22.335Z,95125.16
2023-05-24T06:31:50.942Z,95137.70
2023-05-24T06:34:23.541Z,95140.02
2023-05-24T06:36:53.037Z,95142.17
2023-05-24T06:39:21.623Z,95144.34
2023-05-24T06:41:51.510Z,95144.42
2023-05-24T06:44:32.209Z,95150.03
2023-05-24T06:47:02.426Z,95147.68
2023-05-24T06:49:30.606Z,95148.17
2023-05-24T06:51:58.984Z,95149.72
2023-05-24T06:54:27.155Z,95148.95
2023-05-24T06:56:55.921Z,95145.98
2023-05-24T06:59:24.167Z,95147.94
2023-05-24T07:01:58.416Z,95146.48
2023-05-24T07:04:29.339Z,95150.96
2023-05-24T07:06:58.555Z,95149.56
2023-05-24T07:09:27.017Z,95146.67
2023-05-24T07:11:55.347Z,95146.09
2023-05-24T07:14:26.062Z,95143.39
2023-05-24T07:16:57.598Z,95139.88
2023-05-24T07:19:29.574Z,95143.46
2023-05-24T07:21:58.146Z,95142.91
2023-05-24T07:24:26.381Z,95141.75
2023-05-24T07:26:56.820Z,95145.41
2023-05-24T07:29:26.189Z,95146.15
2023-05-24T07:31:56.497Z,95144.06
2023-05-24T07:34:28.002Z,95147.32
2023-05-24T07:36:58.937Z,95149.55
2023-05-24T07:39:27.796Z,95151.63
2023-05-24T07:41:56.546Z,95152.41
2023-05-24T07:44:25.127Z,95155.02
2023-05-24T07:46:54.145Z,95152.29
2023-05-24T07:49:22.545Z,95155.90
2023-05-24T07:51:50.801Z,95152.77
2023-05-24T07:54:18.879Z,95149.97
2023-05-24T07:56:47.310Z,95151.92
2023-05-24T07:59:15.960Z,95156.17
2023-05-24T08:01:44.009Z,95158.30
2023-05-24T08:04:12.235Z,95157.36
2023-05-24T08:06:40.423Z,95162.02
2023-05-24T08:09:09.001Z,95157.31
2023-05-24T08:11:37.575Z,95159.42
2023-05-24T08:14:05.881Z,95156.59
2023-05-24T08:16:33.987Z,95159.28
2023-05-24T08:19:02.274Z,95156.14
2023-05-24T08:21:30.699Z,95158.41
2023-05-24T08:24:00.207Z,95157.93
2023-05-24T08:26:28.379Z,95164.09
2023-05-24T08:28:56.532Z,95163.95
2023-05-24T08:31:24.751Z,95165.92
2023-05-24T08:33:54.000Z,95168.30
2023-05-24T08:36:22.485Z,95168.40
2023-05-24T08:38:50.617Z,95170.55
2023-05-24T08:41:18.813Z,95170.80
2023-05-24T08:43:47.433Z,95174.22
2023-05-24T08:46:17.622Z,95172.70
2023-05-24T08:48:47.624Z,95174.30
2023-05-24T08:51:17.027Z,95173.60
2023-05-24T08:53:48.985Z,95182.60
2023-05-24T08:56:18.733Z,95180.65
2023-05-24T08:58:47.510Z,95182.23
2023-05-24T09:01:17.660Z,95182.20
2023-05-24T09:03:47.831Z,95181.61
2023-05-24T09:06:18.353Z,95184.77
2023-05-24T09:08:46.587Z,95190.14
2023-05-24T09:11:16.501Z,95189.25
2023-05-24T09:13:46.063Z,95194.08
2023-05-24T09:16:15.867Z,95190.38
2023-05-24T09:18:44.002Z,95193.55
2023-05-24T09:21:12.761Z,95192.42
2023-05-24T09:23:41.714Z,95195.23
2023-05-24T09:26:11.856Z,95195.51
2023-05-24T09:28:41.831Z,95194.66
2023-05-24T09:31:10.221Z,95197.77
2023-05-24T09:33:39.106Z,95197.56
2023-05-24T09:36:07.666Z,95198.61
2023-05-24T09:38:36.860Z,95200.92
2023-05-24T09:41:07.662Z,95204.23
2023-05-24T09:43:48.536Z,95207.73
2023-05-24T09:46:19.689Z,95210.27
2023-05-24T09:49:03.885Z,95217.32
2023-05-24T09:51:32.916Z,95219.62
2023-05-24T09:54:02.511Z,95223.46
2023-05-24T09:56:33.136Z,95222.98
2023-05-24T09:59:08.710Z,95228.46
2023-05-24T10:01:37.810Z,95232.70
2023-05-24T10:04:09.691Z,95236.46
2023-05-24T10:06:39.354Z,95241.14
2023-05-24T10:09:10.275Z,95240.59
2023-05-24T10:11:38.536Z,95247.92
2023-05-24T10:14:09.281Z,95259.92
2023-05-24T10:16:40.623Z,95261.36
2023-05-24T10:19:08.942Z,95262.59
2023-05-24T10:21:42.874Z,95262.23
2023-05-24T10:24:13.886Z,95268.94
2023-05-24T10:26:43.120Z,95274.39
2023-05-24T10:29:21.922Z,95277.83
2023-05-24T10:31:52.720Z,95278.83
2023-05-24T10:34:21.800Z,95277.33
2023-05-24T10:36:50.632Z,95278.27
2023-05-24T10:39:22.021Z,95278.40
2023-05-24T10:41:50.610Z,95277.55
2023-05-24T10:44:20.522Z,95280.52
2023-05-24T10:47:28.651Z,95282.09
2023-05-24T10:49:59.926Z,95287.64
2023-05-24T10:52:37.675Z,95295.80
2023-05-24T10:55:10.494Z,95297.51
2023-05-24T10:57:40.408Z,95302.70
2023-05-24T11:00:34.020Z,95306.39
2023-05-24T11:03:09.030Z,95303.07
2023-05-24T11:06:03.550Z,95300.35
2023-05-24T11:08:33.770Z,95298.80
2023-05-24T11:14:02.947Z,95295.20
2023-05-24T11:16:40.791Z,95295.41
2023-05-24T11:19:22.923Z,95299.20
2023-05-24T11:21:53.936Z,95298.70
2023-05-24T11:24:22.437Z,95297.03
2023-05-24T11:26:52.342Z,95299.39
2023-05-24T11:29:23.392Z,95294.00
2023-05-24T11:31:54.451Z,95296.12
2023-05-24T11:34:23.992Z,95299.90
2023-05-24T11:36:53.519Z,95301.89
2023-05-24T11:39:21.837Z,95305.29
2023-05-24T11:41:50.106Z,95307.45
2023-05-24T11:44:22.225Z,95309.75
2023-05-24T11:46:50.740Z,95317.70
2023-05-24T11:49:18.724Z,95322.30
2023-05-24T11:51:46.836Z,95321.98
2023-05-24T11:54:14.965Z,95325.81
2023-05-24T11:56:43.094Z,95321.93
2023-05-24T11:59:28.218Z,95325.29
2023-05-24T12:02:05.817Z,95324.20
2023-05-24T12:04:34.949Z,95328.05
2023-05-24T12:07:03.708Z,95329.33
2023-05-24T12:09:32.054Z,95330.30
2023-05-24T12:12:02.091Z,95333.64
2023-05-24T12:14:33.414Z,95329.60
2023-05-24T12:17:02.056Z,95325.53
2023-05-24T12:19:33.641Z,95329.20
2023-05-24T12:22:07.432Z,95327.62
2023-05-24T12:24:37.746Z,95327.30
2023-05-24T12:27:08.096Z,95330.26
2023-05-24T12:29:40.131Z,95327.80
2023-05-24T12:32:15.156Z,95332.14
2023-05-24T12:34:45.218Z,95343.14
2023-05-24T12:37:15.323Z,95338.50
2023-05-24T12:39:44.844Z,95336.05
2023-05-24T12:42:13.981Z,95332.58
2023-05-24T12:44:43.087Z,95326.76
2023-05-24T12:47:12.432Z,95324.58
2023-05-24T12:49:40.684Z,95325.66
2023-05-24T12:52:08.879Z,95326.36
2023-05-24T12:54:37.268Z,95326.08
2023-05-24T12:57:05.912Z,95324.35
2023-05-24T12:59:34.101Z,95324.70
2023-05-24T13:02:02.609Z,95324.66
2023-05-24T13:04:33.783Z,95325.96
2023-05-24T13:07:03.430Z,95327.36
2023-05-24T13:09:33.342Z,95331.70
2023-05-24T13:12:01.735Z,95328.77
2023-05-24T13:14:30.055Z,95331.32
2023-05-24T13:16:58.310Z,95327.89
2023-05-24T13:19:26.613Z,95323.88
2023-05-24T13:21:54.718Z,95322.41
2023-05-24T13:24:23.461Z,95323.05
2023-05-24T13:26:54.478Z,95322.00
2023-05-24T13:29:36.791Z,95313.74
2023-05-24T13:32:11.063Z,95305.08
2023-05-24T13:34:39.574Z,95304.75
2023-05-24T13:37:09.007Z,95301.83
2023-05-24T13:39:38.663Z,95298.55
2023-05-24T13:42:07.413Z,95300.23
2023-05-24T13:44:35.630Z,95295.31
2023-05-24T13:47:04.026Z,95290.98
2023-05-24T13:49:32.305Z,95278.34
2023-05-24T13:52:00.619Z,95273.17
2023-05-24T13:54:28.714Z,95266.42
2023-05-24T13:56:59.785Z,95263.13
2023-05-24T13:59:28.361Z,95253.30
2023-05-24T14:01:56.546Z,95257.39
2023-05-24T14:04:24.736Z,95255.16
2023-05-24T14:06:52.975Z,95253.08
2023-05-24T14:09:21.417Z,95249.23
2023-05-24T14:11:49.617Z,95250.04
2023-05-24T14:14:54.195Z,95251.86
2023-05-24T14:17:06.473Z,95252.23
2023-05-24T14:19:35.108Z,95248.80
2023-05-24T14:22:03.141Z,95253.45
2023-05-24T14:24:31.189Z,95249.54
2023-05-24T14:26:59.524Z,95252.55
2023-05-24T14:29:27.995Z,95252.86
2023-05-24T14:31:56.150Z,95249.22
2023-05-24T14:34:24.382Z,95254.37
2023-05-24T14:36:54.500Z,95251.86
2023-05-24T14:39:22.859Z,95249.41
2023-05-24T14:41:51.057Z,95249.01
2023-05-24T14:44:19.487Z,95247.52
2023-05-24T14:46:47.504Z,95246.33
2023-05-24T14:49:16.052Z,95244.33
2023-05-24T14:51:48.574Z,95243.67
2023-05-24T14:54:16.794Z,95246.36
2023-05-24T14:56:44.845Z,95242.45
2023-05-24T14:59:12.908Z,95239.49
2023-05-24T15:01:41.490Z,95240.06
2023-05-24T15:04:09.679Z,95235.69
2023-05-24T15:06:38.834Z,95236.10
2023-05-24T15:09:07.181Z,95234.95
2023-05-24T15:11:35.729Z,95231.43
2023-05-24T15:14:03.883Z,95233.98
2023-05-24T15:16:32.128Z,95235.08
2023-05-24T15:19:00.329Z,95239.32
2023-05-24T15:21:28.499Z,95236.57
2023-05-24T15:23:56.647Z,95239.95
2023-05-24T15:26:24.766Z,95240.09
2023-05-24T15:28:53.126Z,95240.84
2023-05-24T15:31:21.238Z,95245.77
2023-05-24T15:33:49.390Z,95244.33
2023-05-24T15:36:17.754Z,95241.64
2023-05-24T15:38:45.971Z,95238.77
2023-05-24T15:41:14.260Z,95238.45
2023-05-24T15:43:42.318Z,95241.38
2023-05-24T15:46:10.389Z,95244.54
2023-05-24T15:48:39.261Z,95243.59
2023-05-24T15:53:39.351Z,95242.14
2023-05-24T15:56:07.638Z,95244.84
2023-05-24T15:58:35.920Z,95246.12
2023-05-24T16:01:04.046Z,95246.25
2023-05-24T16:03:32.505Z,95241.92
2023-05-24T16:06:01.156Z,95247.98
2023-05-24T16:08:29.281Z,95253.79
2023-05-24T16:10:57.556Z,95253.16
2023-05-24T16:13:25.916Z,95257.30
2023-05-24T16:15:54.126Z,95257.13
2023-05-24T16:18:23.171Z,95260.95
2023-05-24T16:20:52.072Z,95264.13
2023-05-24T16:23:23.119Z,95264.40
2023-05-24T16:25:51.704Z,95265.14
2023-05-24T16:28:24.875Z,95266.45
2023-05-24T16:30:56.279Z,95263.25
2023-05-24T16:33:25.324Z,95265.25
2023-05-24T16:35:56.687Z,95264.48
2023-05-24T16:38:26.184Z,95260.95
2023-05-24T16:40:54.575Z,95257.73
2023-05-24T16:43:22.858Z,95261.23
2023-05-24T16:45:52.047Z,95257.36
2023-05-24T16:48:21.647Z,95260.05
2023-05-24T16:50:51.715Z,95260.31
2023-05-24T16:53:23.206Z,95264.00
2023-05-24T16:55:54.176Z,95258.65
2023-05-24T16:58:28.197Z,95263.23
2023-05-24T17:00:56.599Z,95262.98
2023-05-24T17:03:28.624Z,95263.77
2023-05-24T17:06:03.527Z,95263.84
2023-05-24T17:08:35.266Z,95269.76
2023-05-24T17:11:04.527Z,95264.01
2023-05-24T17:13:33.373Z,95262.19
2023-05-24T17:16:03.666Z,95257.77
2023-05-24T17:18:32.090Z,95261.86
2023-05-24T17:21:02.213Z,95258.95
2023-05-24T17:23:32.159Z,95267.58
2023-05-24T17:26:02.817Z,95267.11
2023-05-24T17:28:31.357Z,95268.17
2023-05-24T17:31:01.291Z,95261.85
2023-05-24T17:33:30.959Z,95267.34
2023-05-24T17:36:06.386Z,95264.14
2023-05-24T17:38:37.517Z,95265.87
2023-05-24T17:41:10.025Z,95265.25
2023-05-24T17:43:40.173Z,95269.26
2023-05-24T17:46:08.785Z,95274.56
2023-05-24T17:48:41.219Z,95278.46
2023-05-24T17:51:10.658Z,95276.79
2023-05-24T17:53:41.148Z,95279.78
2023-05-24T17:56:09.668Z,95276.91
2023-05-24T17:58:37.994Z,95281.67
2023-05-24T18:01:07.483Z,95291.00
2023-05-24T18:03:37.433Z,95297.74
2023-05-24T18:06:07.575Z,95301.17
2023-05-24T18:08:38.455Z,95305.67
2023-05-24T18:11:10.549Z,95309.43
2023-05-24T18:13:41.869Z,95306.11
2023-05-24T18:16:11.522Z,95309.98
2023-05-24T18:18:40.962Z,95314.96
2023-05-24T18:21:09.927Z,95321.27
2023-05-24T18:23:38.294Z,95322.73
2023-05-24T18:26:08.820Z,95324.17
2023-05-24T18:28:38.141Z,95324.11
2023-05-24T18:31:16.370Z,95324.52
2023-05-24T18:33:44.686Z,95319.36
2023-05-24T18:36:13.024Z,95320.36
2023-05-24T18:38:41.401Z,95326.16
2023-05-24T18:41:12.124Z,95327.62
2023-05-24T18:43:42.998Z,95326.87
2023-05-24T18:46:15.142Z,95334.37
2023-05-24T18:48:43.862Z,95340.19
2023-05-24T18:51:12.150Z,95340.27
2023-05-24T18:53:40.692Z,95341.50
2023-05-24T18:56:08.710Z,95344.61
2023-05-24T18:58:36.899Z,95343.65
2023-05-24T19:01:05.099Z,95350.52
2023-05-24T19:03:33.417Z,95355.54
2023-05-24T19:06:01.588Z,95361.62
2023-05-24T19:08:29.754Z,95366.98
2023-05-24T19:10:57.946Z,95366.73
2023-05-24T19:13:27.572Z,95364.79
2023-05-24T19:15:56.675Z,95370.80
2023-05-24T19:18:24.743Z,95370.69
2023-05-24T19:20:53.046Z,95371.99
2023-05-24T19:23:21.350Z,95369.59
2023-05-24T19:25:50.545Z,95370.94
2023-05-24T19:28:18.691Z,95372.03
2023-05-24T19:30:46.793Z,95376.34
2023-05-24T19:33:14.975Z,95373.47
2023-05-24T19:35:43.384Z,95377.80
2023-05-24T19:38:12.338Z,95377.23
2023-05-24T19:40:40.366Z,95376.05
2023-05-24T19:43:08.480Z,95377.33
2023-05-24T19:45:36.514Z,95371.85
2023-05-24T19:48:05.170Z,95371.87
2023-05-24T19:50:33.235Z,95373.75
2023-05-24T19:53:01.281Z,95376.95
2023-05-24T19:55:29.340Z,95374.34
2023-05-24T19:57:57.651Z,95374.65
2023-05-24T20:00:25.801Z,95373.04
2023-05-24T20:02:53.951Z,95373.48
2023-05-24T20:05:22.464Z,95374.09
2023-05-24T20:07:51.078Z,95373.30
2023-05-24T20:10:19.226Z,95372.30
2023-05-24T20:12:47.393Z,95375.21
2023-05-24T20:15:17.541Z,95380.87
2023-05-24T20:17:45.799Z,95382.52
2023-05-24T20:20:14.245Z,95392.89
2023-05-24T20:22:42.315Z,95389.95
2023-05-24T20:25:10.998Z,95388.06
2023-05-24T20:27:41.950Z,95386.48
2023-05-24T20:30:12.257Z,95389.27
2023-05-24T20:32:40.451Z,95393.77
2023-05-24T20:35:09.480Z,95396.98
2023-05-24T20:37:38.476Z,95395.14
2023-05-24T20:40:08.486Z,95399.14
2023-05-24T20:42:36.656Z,95399.27
2023-05-24T20:45:05.159Z,95397.99
2023-05-24T20:47:33.210Z,95400.59
2023-05-24T20:50:01.358Z,95401.61
2023-05-24T20:52:29.665Z,95408.51
2023-05-24T20:54:57.727Z,95410.67
2023-05-24T20:57:25.990Z,95414.84
2023-05-24T20:59:54.100Z,95412.69
2023-05-24T21:02:22.223Z,95414.68
2023-05-24T21:04:50.625Z,95418.68
2023-05-24T21:07:18.733Z,95415.69
2023-05-24T21:09:46.739Z,95416.58
2023-05-24T21:12:15.140Z,95418.02
2023-05-24T21:14:44.686Z,95421.77
2023-05-24T21:17:12.818Z,95421.17
2023-05-24T21:19:41.292Z,95425.12
2023-05-24T21:22:09.389Z,95422.16
2023-05-24T21:24:37.472Z,95423.96
2023-05-24T21:27:05.736Z,95423.23
2023-05-24T21:29:38.004Z,95430.30
2023-05-24T21:32:06.307Z,95427.55
2023-05-24T21:34:35.825Z,95428.59
2023-05-24T21:37:05.146Z,95425.81
2023-05-24T21:39:33.202Z,95424.70
2023-05-24T21:42:02.287Z,95423.91
2023-05-24T21:44:30.553Z,95421.48
2023-05-24T21:46:58.795Z,95425.33
2023-05-24T21:49:27.741Z,95426.38
2023-05-24T21:51:55.830Z,95427.91
2023-05-24T21:54:24.012Z,95427.64
2023-05-24T21:56:52.163Z,95431.13
2023-05-24T21:59:21.470Z,95432.14
2023-05-24T22:01:49.685Z,95433.08
2023-05-24T22:04:17.991Z,95433.93
2023-05-24T22:06:46.477Z,95434.03
2023-05-24T22:09:14.715Z,95439.52
2023-05-24T22:11:42.919Z,95440.14
2023-05-24T22:14:11.060Z,95448.25
2023-05-24T22:16:39.327Z,95446.00
2023-05-24T22:19:14.424Z,95446.84
2023-05-24T22:21:43.591Z,95443.62
2023-05-24T22:24:12.780Z,95445.20
2023-05-24T22:26:46.893Z,95443.62
2023-05-24T22:29:15.397Z,95440.60
2023-05-24T22:31:43.763Z,95438.23
2023-05-24T22:34:12.009Z,95440.09
2023-05-24T22:36:40.561Z,95442.08
2023-05-24T22:39:08.621Z,95442.35
2023-05-24T22:41:36.819Z,95444.88
2023-05-24T22:44:05.030Z,95445.45
2023-05-24T22:46:33.254Z,95445.30
2023-05-24T22:49:03.099Z,95444.45
2023-05-24T22:51:32.233Z,95446.46
2023-05-24T22:54:00.632Z,95444.39
2023-05-24T22:56:29.056Z,95446.66
2023-05-24T22:58:57.211Z,95446.03
2023-05-24T23:01:25.313Z,95447.23
2023-05-24T23:03:54.386Z,95453.45
2023-05-24T23:06:25.767Z,95449.81
2023-05-24T23:08:53.809Z,95450.25
2023-05-24T23:11:21.975Z,95446.13
2023-05-24T23:13:52.411Z,95447.70
2023-05-24T23:16:20.657Z,95444.96
2023-05-24T23:18:49.171Z,95443.60
2023-05-24T23:21:17.179Z,95445.60
2023-05-24T23:23:46.335Z,95444.42
2023-05-24T23:26:14.549Z,95442.39
2023-05-24T23:28:43.354Z,95439.60
2023-05-24T23:31:11.567Z,95439.39
2023-05-24T23:33:39.624Z,95439.91
2023-05-24T23:36:09.095Z,95439.06
2023-05-24T23:38:37.443Z,95442.70
2023-05-24T23:41:05.505Z,95439.03
2023-05-24T23:43:33.533Z,95434.53
2023-05-24T23:46:01.636Z,95433.80
2023-05-24T23:48:29.802Z,95434.28
2023-05-24T23:50:57.897Z,95432.07
2023-05-24T23:53:26.166Z,95430.14
2023-05-24T23:55:54.305Z,95433.29
2023-05-24T23:58:22.548Z,95427.91
